createdAt,value
2015-02-03T00:00:06.475Z,97713
2015-02-03T00:00:24.962Z,97718
2015-02-03T00:00:43.472Z,97713
2015-02-03T00:01:01.960Z,97713
2015-02-03T00:01:20.450Z,97710
2015-02-03T00:01:38.944Z,97724
2015-02-03T00:01:57.450Z,97713
2015-02-03T00:02:15.930Z,97707
2015-02-03T00:02:34.416Z,97718
2015-02-03T00:02:52.901Z,97710
2015-02-03T00:03:11.396Z,97710
2015-02-03T00:03:29.904Z,97718
2015-02-03T00:03:48.391Z,97730
2015-02-03T00:04:06.884Z,97716
2015-02-03T00:04:25.378Z,97713
2015-02-03T00:04:43.862Z,97718
2015-02-03T00:05:02.351Z,97710
2015-02-03T00:05:20.830Z,97713
2015-02-03T00:05:39.345Z,97713
2015-02-03T00:05:57.816Z,97718
2015-02-03T00:06:16.342Z,97710
2015-02-03T00:06:34.828Z,97707
2015-02-03T00:06:53.358Z,97710
2015-02-03T00:07:11.840Z,97718
2015-02-03T00:07:30.349Z,97707
2015-02-03T00:07:48.824Z,97707
2015-02-03T00:08:07.339Z,97724
2015-02-03T00:08:25.821Z,97710
2015-02-03T00:08:44.304Z,97710
2015-02-03T00:09:02.793Z,97713
2015-02-03T00:09:21.289Z,97705
2015-02-03T00:09:39.783Z,97710
2015-02-03T00:09:58.261Z,97713
2015-02-03T00:10:16.745Z,97716
2015-02-03T00:10:35.224Z,97710
2015-02-03T00:10:53.711Z,97704
2015-02-03T00:11:12.215Z,97710
2015-02-03T00:11:30.702Z,97713
2015-02-03T00:11:49.181Z,97704
2015-02-03T00:12:07.693Z,97713
2015-02-03T00:12:26.176Z,97707
2015-02-03T00:12:44.683Z,97716
2015-02-03T00:13:03.187Z,97721
2015-02-03T00:13:21.677Z,97710
2015-02-03T00:13:40.215Z,97702
2015-02-03T00:13:58.720Z,97710
2015-02-03T00:14:17.220Z,97716
2015-02-03T00:14:35.712Z,97713
2015-02-03T00:14:54.198Z,97713
2015-02-03T00:15:12.689Z,97707
2015-02-03T00:15:31.183Z,97710
2015-02-03T00:15:49.677Z,97710
2015-02-03T00:16:08.185Z,97707
2015-02-03T00:16:26.680Z,97713
2015-02-03T00:16:45.228Z,97716
2015-02-03T00:17:03.713Z,97715
2015-02-03T00:17:22.223Z,97718
2015-02-03T00:17:40.700Z,97715
2015-02-03T00:17:59.189Z,97710
2015-02-03T00:18:17.667Z,97713
2015-02-03T00:18:36.206Z,97710
2015-02-03T00:18:54.687Z,97715
2015-02-03T00:19:13.177Z,97707
2015-02-03T00:19:31.659Z,97713
2015-02-03T00:19:50.199Z,97718
2015-02-03T00:20:08.685Z,97718
2015-02-03T00:20:27.177Z,97716
2015-02-03T00:20:45.663Z,97718
2015-02-03T00:21:04.151Z,97721
2015-02-03T00:21:22.650Z,97730
2015-02-03T00:21:41.166Z,97721
2015-02-03T00:21:59.651Z,97716
2015-02-03T00:22:18.153Z,97727
2015-02-03T00:22:36.636Z,97727
2015-02-03T00:22:55.162Z,97713
2015-02-03T00:23:13.661Z,97716
2015-02-03T00:23:32.149Z,97727
2015-02-03T00:23:50.639Z,97710
2015-02-03T00:24:09.137Z,97718
2015-02-03T00:24:27.631Z,97718
2015-02-03T00:24:46.129Z,97704
2015-02-03T00:25:04.636Z,97715
2015-02-03T00:25:23.128Z,97716
2015-02-03T00:25:41.622Z,97710
2015-02-03T00:26:00.114Z,97724
2015-02-03T00:26:18.599Z,97721
2015-02-03T00:26:37.107Z,97724
2015-02-03T00:26:55.594Z,97727
2015-02-03T00:27:14.082Z,97718
2015-02-03T00:27:32.593Z,97721
2015-02-03T00:27:51.062Z,97721
2015-02-03T00:28:09.544Z,97721
2015-02-03T00:28:28.028Z,97721
2015-02-03T00:28:46.523Z,97713
2015-02-03T00:29:05.018Z,97707
2015-02-03T00:29:23.524Z,97721
2015-02-03T00:29:42.066Z,97713
2015-02-03T00:30:00.557Z,97710
2015-02-03T00:30:19.061Z,97707
2015-02-03T00:30:37.552Z,97713
2015-02-03T00:30:56.051Z,97713
2015-02-03T00:31:14.536Z,97715
2015-02-03T00:31:33.040Z,97707
2015-02-03T00:31:51.521Z,97721
2015-02-03T00:32:10.021Z,97704
2015-02-03T00:32:28.497Z,97707
2015-02-03T00:32:46.986Z,97713
2015-02-03T00:33:05.477Z,97715
2015-02-03T00:33:23.961Z,97713
2015-02-03T00:33:42.440Z,97716
2015-02-03T00:34:00.955Z,97713
2015-02-03T00:34:19.443Z,97721
2015-02-03T00:34:37.957Z,97727
2015-02-03T00:34:56.439Z,97718
2015-02-03T00:35:14.941Z,97721
2015-02-03T00:35:33.441Z,97721
2015-02-03T00:35:51.933Z,97707
2015-02-03T00:36:10.453Z,97718
2015-02-03T00:36:28.987Z,97715
2015-02-03T00:36:47.477Z,97716
2015-02-03T00:37:05.975Z,97713
2015-02-03T00:37:24.463Z,97718
2015-02-03T00:37:42.967Z,97718
2015-02-03T00:38:01.459Z,97721
2015-02-03T00:38:19.959Z,97721
2015-02-03T00:38:38.455Z,97715
2015-02-03T00:38:56.969Z,97718
2015-02-03T00:39:15.442Z,97718
2015-02-03T00:39:33.925Z,97710
2015-02-03T00:39:52.411Z,97721
2015-02-03T00:40:10.892Z,97724
2015-02-03T00:40:29.391Z,97716
2015-02-03T00:40:47.729Z,97724
2015-02-03T00:41:06.224Z,97716
2015-02-03T00:41:24.717Z,97721
2015-02-03T00:41:43.203Z,97729
2015-02-03T00:42:01.699Z,97718
2015-02-03T00:42:20.226Z,97724
2015-02-03T00:42:38.712Z,97721
2015-02-03T00:42:57.187Z,97724
2015-02-03T00:43:15.682Z,97724
2015-02-03T00:43:34.189Z,97729
2015-02-03T00:43:52.684Z,97724
2015-02-03T00:44:11.187Z,97718
2015-02-03T00:44:29.677Z,97721
2015-02-03T00:44:48.167Z,97727
2015-02-03T00:45:06.664Z,97713
2015-02-03T00:45:25.132Z,97729
2015-02-03T00:45:43.636Z,97721
2015-02-03T00:46:02.155Z,97718
2015-02-03T00:46:20.650Z,97727
2015-02-03T00:46:39.160Z,97729
2015-02-03T00:46:57.641Z,97726
2015-02-03T00:47:16.156Z,97735
2015-02-03T00:47:34.635Z,97724
2015-02-03T00:47:53.130Z,97727
2015-02-03T00:48:11.615Z,97721
2015-02-03T00:48:30.136Z,97718
2015-02-03T00:48:48.622Z,97729
2015-02-03T00:49:07.128Z,97713
2015-02-03T00:49:25.613Z,97724
2015-02-03T00:49:44.108Z,97732
2015-02-03T00:50:02.594Z,97738
2015-02-03T00:50:21.077Z,97732
2015-02-03T00:50:39.578Z,97730
2015-02-03T00:50:58.057Z,97724
2015-02-03T00:51:16.545Z,97738
2015-02-03T00:51:35.105Z,97730
2015-02-03T00:51:53.590Z,97730
2015-02-03T00:52:12.090Z,97724
2015-02-03T00:52:30.586Z,97727
2015-02-03T00:52:49.083Z,97730
2015-02-03T00:53:07.571Z,97727
2015-02-03T00:53:26.067Z,97727
2015-02-03T00:53:44.565Z,97721
2015-02-03T00:54:03.066Z,97727
2015-02-03T00:54:21.554Z,97727
2015-02-03T00:54:40.063Z,97718
2015-02-03T00:54:58.549Z,97724
2015-02-03T00:55:17.061Z,97721
2015-02-03T00:55:35.540Z,97724
2015-02-03T00:55:54.034Z,97727
2015-02-03T00:56:12.516Z,97729
2015-02-03T00:56:30.995Z,97718
2015-02-03T00:56:49.477Z,97727
2015-02-03T00:57:07.965Z,97732
2015-02-03T00:57:26.493Z,97724
2015-02-03T00:57:44.951Z,97727
2015-02-03T00:58:03.432Z,97729
2015-02-03T00:58:21.958Z,97743
2015-02-03T00:58:40.440Z,97738
2015-02-03T00:58:58.928Z,97732
2015-02-03T00:59:17.415Z,97732
2015-02-03T00:59:35.897Z,97735
2015-02-03T00:59:54.378Z,97730
2015-02-03T01:00:12.862Z,97732
2015-02-03T01:00:31.343Z,97729
2015-02-03T01:00:49.827Z,97732
2015-02-03T01:01:08.334Z,97732
2015-02-03T01:01:26.813Z,97732
2015-02-03T01:01:45.295Z,97727
2015-02-03T01:02:03.799Z,97741
2015-02-03T01:02:22.310Z,97730
2015-02-03T01:02:40.807Z,97727
2015-02-03T01:02:59.294Z,97735
2015-02-03T01:03:17.796Z,97738
2015-02-03T01:03:36.281Z,97741
2015-02-03T01:03:54.763Z,97730
2015-02-03T01:04:13.253Z,97741
2015-02-03T01:04:31.751Z,97730
2015-02-03T01:04:50.235Z,97741
2015-02-03T01:05:08.719Z,97730
2015-02-03T01:05:27.237Z,97738
2015-02-03T01:05:45.724Z,97730
2015-02-03T01:06:04.221Z,97738
2015-02-03T01:06:22.716Z,97732
2015-02-03T01:06:41.205Z,97732
2015-02-03T01:06:59.719Z,97732
2015-02-03T01:07:18.200Z,97732
2015-02-03T01:07:36.712Z,97732
2015-02-03T01:07:55.204Z,97729
2015-02-03T01:08:13.689Z,97724
2015-02-03T01:08:32.190Z,97727
2015-02-03T01:08:50.711Z,97735
2015-02-03T01:09:09.189Z,97735
2015-02-03T01:09:27.679Z,97738
2015-02-03T01:09:46.174Z,97727
2015-02-03T01:10:04.651Z,97730
2015-02-03T01:10:23.139Z,97738
2015-02-03T01:10:41.676Z,97735
2015-02-03T01:11:00.141Z,97735
2015-02-03T01:11:18.676Z,97730
2015-02-03T01:11:37.156Z,97730
2015-02-03T01:11:55.670Z,97730
2015-02-03T01:12:14.150Z,97738
2015-02-03T01:12:32.635Z,97730
2015-02-03T01:12:51.129Z,97735
2015-02-03T01:13:09.607Z,97730
2015-02-03T01:13:28.091Z,97724
2015-02-03T01:13:46.584Z,97727
2015-02-03T01:14:05.092Z,97721
2015-02-03T01:14:23.571Z,97730
2015-02-03T01:14:42.051Z,97727
2015-02-03T01:15:00.584Z,97738
2015-02-03T01:15:19.055Z,97727
2015-02-03T01:15:37.565Z,97727
2015-02-03T01:15:56.046Z,97718
2015-02-03T01:16:14.530Z,97724
2015-02-03T01:16:33.015Z,97730
2015-02-03T01:16:51.373Z,97732
2015-02-03T01:17:09.892Z,97735
2015-02-03T01:17:28.376Z,97727
2015-02-03T01:17:46.898Z,97735
2015-02-03T01:18:05.384Z,97732
2015-02-03T01:18:23.889Z,97735
2015-02-03T01:18:42.375Z,97727
2015-02-03T01:19:00.865Z,97735
2015-02-03T01:19:19.349Z,97732
2015-02-03T01:19:37.866Z,97730
2015-02-03T01:19:56.354Z,97741
2015-02-03T01:20:14.856Z,97732
2015-02-03T01:20:33.344Z,97741
2015-02-03T01:20:51.852Z,97732
2015-02-03T01:21:10.336Z,97735
2015-02-03T01:21:28.822Z,97732
2015-02-03T01:21:47.313Z,97724
2015-02-03T01:22:05.799Z,97727
2015-02-03T01:22:24.307Z,97735
2015-02-03T01:22:42.791Z,97730
2015-02-03T01:23:01.278Z,97730
2015-02-03T01:23:19.774Z,97732
2015-02-03T01:23:38.261Z,97727
2015-02-03T01:23:56.598Z,97732
2015-02-03T01:24:15.091Z,97721
2015-02-03T01:24:33.572Z,97729
2015-02-03T01:24:52.067Z,97735
2015-02-03T01:25:10.552Z,97735
2015-02-03T01:25:29.040Z,97724
2015-02-03T01:25:47.522Z,97729
2015-02-03T01:26:06.006Z,97743
2015-02-03T01:26:24.495Z,97732
2015-02-03T01:26:42.981Z,97732
2015-02-03T01:27:01.471Z,97738
2015-02-03T01:27:19.952Z,97735
2015-02-03T01:27:38.471Z,97729
2015-02-03T01:27:56.966Z,97732
2015-02-03T01:28:15.299Z,97721
2015-02-03T01:28:33.771Z,97727
2015-02-03T01:28:52.251Z,97741
2015-02-03T01:29:10.752Z,97738
2015-02-03T01:29:29.236Z,97741
2015-02-03T01:29:47.741Z,97738
2015-02-03T01:30:06.224Z,97735
2015-02-03T01:30:24.732Z,97732
2015-02-03T01:30:43.213Z,97741
2015-02-03T01:31:01.733Z,97738
2015-02-03T01:31:20.228Z,97732
2015-02-03T01:31:38.712Z,97732
2015-02-03T01:31:57.198Z,97741
2015-02-03T01:32:15.684Z,97746
2015-02-03T01:32:34.175Z,97732
2015-02-03T01:32:52.661Z,97729
2015-02-03T01:33:11.175Z,97743
2015-02-03T01:33:29.661Z,97741
2015-02-03T01:33:48.151Z,97732
2015-02-03T01:34:06.631Z,97735
2015-02-03T01:34:25.119Z,97738
2015-02-03T01:34:43.642Z,97735
2015-02-03T01:35:02.152Z,97741
2015-02-03T01:35:20.621Z,97741
2015-02-03T01:35:39.109Z,97735
2015-02-03T01:35:57.625Z,97732
2015-02-03T01:36:16.138Z,97735
2015-02-03T01:36:34.622Z,97735
2015-02-03T01:36:53.132Z,97746
2015-02-03T01:37:11.662Z,97732
2015-02-03T01:37:30.148Z,97727
2015-02-03T01:37:48.652Z,97744
2015-02-03T01:38:07.135Z,97730
2015-02-03T01:38:25.630Z,97730
2015-02-03T01:38:44.113Z,97727
2015-02-03T01:39:02.623Z,97738
2015-02-03T01:39:21.111Z,97732
2015-02-03T01:39:39.592Z,97733
2015-02-03T01:39:58.079Z,97730
2015-02-03T01:40:16.555Z,97730
2015-02-03T01:40:35.040Z,97730
2015-02-03T01:40:53.552Z,97733
2015-02-03T01:41:12.040Z,97730
2015-02-03T01:41:30.533Z,97733
2015-02-03T01:41:49.024Z,97733
2015-02-03T01:42:07.503Z,97730
2015-02-03T01:42:25.982Z,97735
2015-02-03T01:42:44.479Z,97735
2015-02-03T01:43:02.958Z,97727
2015-02-03T01:43:21.517Z,97729
2015-02-03T01:43:39.997Z,97724
2015-02-03T01:43:58.481Z,97727
2015-02-03T01:44:16.972Z,97735
2015-02-03T01:44:35.464Z,97721
2015-02-03T01:44:53.951Z,97730
2015-02-03T01:45:12.456Z,97730
2015-02-03T01:45:30.943Z,97724
2015-02-03T01:45:49.481Z,97724
2015-02-03T01:46:07.965Z,97724
2015-02-03T01:46:26.454Z,97729
2015-02-03T01:46:44.938Z,97729
2015-02-03T01:47:03.439Z,97727
2015-02-03T01:47:21.919Z,97727
2015-02-03T01:47:40.417Z,97738
2015-02-03T01:47:58.910Z,97729
2015-02-03T01:48:17.459Z,97729
2015-02-03T01:48:35.951Z,97729
2015-02-03T01:48:54.458Z,97735
2015-02-03T01:49:12.942Z,97732
2015-02-03T01:49:31.465Z,97727
2015-02-03T01:49:49.953Z,97732
2015-02-03T01:50:08.436Z,97732
2015-02-03T01:50:26.915Z,97724
2015-02-03T01:50:45.439Z,97724
2015-02-03T01:51:03.918Z,97729
2015-02-03T01:51:22.409Z,97735
2015-02-03T01:51:40.893Z,97732
2015-02-03T01:51:59.373Z,97729
2015-02-03T01:52:17.856Z,97732
2015-02-03T01:52:36.358Z,97738
2015-02-03T01:52:54.844Z,97729
2015-02-03T01:53:13.370Z,97735
2015-02-03T01:53:31.850Z,97738
2015-02-03T01:53:50.347Z,97724
2015-02-03T01:54:08.835Z,97727
2015-02-03T01:54:27.317Z,97741
2015-02-03T01:54:45.806Z,97730
2015-02-03T01:55:04.318Z,97730
2015-02-03T01:55:22.791Z,97735
2015-02-03T01:55:41.278Z,97729
2015-02-03T01:55:59.760Z,97735
2015-02-03T01:56:18.252Z,97735
2015-02-03T01:56:36.740Z,97730
2015-02-03T01:56:55.222Z,97738
2015-02-03T01:57:13.705Z,97741
2015-02-03T01:57:32.191Z,97727
2015-02-03T01:57:50.670Z,97727
2015-02-03T01:58:09.159Z,97732
2015-02-03T01:58:27.653Z,97732
2015-02-03T01:58:46.133Z,97735
2015-02-03T01:59:04.618Z,97718
2015-02-03T01:59:23.133Z,97735
2015-02-03T01:59:41.620Z,97730
2015-02-03T02:00:00.120Z,97738
2015-02-03T02:00:18.609Z,97738
2015-02-03T02:00:37.096Z,97741
2015-02-03T02:00:55.583Z,97732
2015-02-03T02:01:14.073Z,97741
2015-02-03T02:01:32.560Z,97730
2015-02-03T02:01:51.051Z,97738
2015-02-03T02:02:09.540Z,97735
2015-02-03T02:02:28.047Z,97727
2015-02-03T02:02:46.535Z,97735
2015-02-03T02:03:05.010Z,97735
2015-02-03T02:03:23.499Z,97735
2015-02-03T02:03:42.006Z,97732
2015-02-03T02:04:00.487Z,97732
2015-02-03T02:04:18.975Z,97732
2015-02-03T02:04:37.465Z,97732
2015-02-03T02:04:55.954Z,97735
2015-02-03T02:05:14.462Z,97730
2015-02-03T02:05:33.009Z,97730
2015-02-03T02:05:51.495Z,97735
2015-02-03T02:06:09.975Z,97735
2015-02-03T02:06:28.450Z,97721
2015-02-03T02:06:46.997Z,97732
2015-02-03T02:07:05.481Z,97732
2015-02-03T02:07:23.965Z,97738
2015-02-03T02:07:42.442Z,97732
2015-02-03T02:08:00.991Z,97746
2015-02-03T02:08:19.471Z,97738
2015-02-03T02:08:37.967Z,97735
2015-02-03T02:08:56.451Z,97730
2015-02-03T02:09:14.941Z,97732
2015-02-03T02:09:33.424Z,97735
2015-02-03T02:09:51.965Z,97738
2015-02-03T02:10:10.453Z,97741
2015-02-03T02:10:28.951Z,97738
2015-02-03T02:10:47.433Z,97732
2015-02-03T02:11:05.944Z,97735
2015-02-03T02:11:24.440Z,97738
2015-02-03T02:11:42.931Z,97744
2015-02-03T02:12:01.415Z,97735
2015-02-03T02:12:19.928Z,97738
2015-02-03T02:12:38.409Z,97727
2015-02-03T02:12:56.918Z,97735
2015-02-03T02:13:15.402Z,97735
2015-02-03T02:13:33.893Z,97732
2015-02-03T02:13:52.380Z,97744
2015-02-03T02:14:10.866Z,97738
2015-02-03T02:14:29.352Z,97738
2015-02-03T02:14:47.868Z,97735
2015-02-03T02:15:06.365Z,97724
2015-02-03T02:15:24.901Z,97735
2015-02-03T02:15:43.390Z,97735
2015-02-03T02:16:01.880Z,97738
2015-02-03T02:16:20.368Z,97730
2015-02-03T02:16:38.857Z,97732
2015-02-03T02:16:57.345Z,97732
2015-02-03T02:17:15.827Z,97727
2015-02-03T02:17:34.308Z,97730
2015-02-03T02:17:52.795Z,97738
2015-02-03T02:18:11.281Z,97732
2015-02-03T02:18:29.791Z,97738
2015-02-03T02:18:48.274Z,97732
2015-02-03T02:19:06.780Z,97732
2015-02-03T02:19:25.291Z,97730
2015-02-03T02:19:43.833Z,97732
2015-02-03T02:20:02.324Z,97730
2015-02-03T02:20:20.824Z,97735
2015-02-03T02:20:39.307Z,97730
2015-02-03T02:20:57.793Z,97738
2015-02-03T02:21:16.278Z,97727
2015-02-03T02:21:34.792Z,97735
2015-02-03T02:21:53.275Z,97735
2015-02-03T02:22:11.803Z,97732
2015-02-03T02:22:30.283Z,97727
2015-02-03T02:22:48.766Z,97727
2015-02-03T02:23:07.260Z,97727
2015-02-03T02:23:25.728Z,97735
2015-02-03T02:23:44.231Z,97727
2015-02-03T02:24:02.728Z,97727
2015-02-03T02:24:21.230Z,97733
2015-02-03T02:24:39.769Z,97735
2015-02-03T02:24:58.261Z,97730
2015-02-03T02:25:16.769Z,97727
2015-02-03T02:25:35.250Z,97735
2015-02-03T02:25:53.766Z,97735
2015-02-03T02:26:12.250Z,97727
2015-02-03T02:26:30.753Z,97727
2015-02-03T02:26:49.239Z,97738
2015-02-03T02:27:07.743Z,97735
2015-02-03T02:27:26.243Z,97733
2015-02-03T02:27:44.735Z,97727
2015-02-03T02:28:03.224Z,97730
2015-02-03T02:28:21.732Z,97730
2015-02-03T02:28:40.220Z,97721
2015-02-03T02:28:58.716Z,97738
2015-02-03T02:29:17.202Z,97730
2015-02-03T02:29:35.705Z,97730
2015-02-03T02:29:54.196Z,97733
2015-02-03T02:30:12.709Z,97735
2015-02-03T02:30:31.212Z,97727
2015-02-03T02:30:49.698Z,97733
2015-02-03T02:31:08.182Z,97735
2015-02-03T02:31:26.663Z,97724
2015-02-03T02:31:45.149Z,97727
2015-02-03T02:32:03.684Z,97733
2015-02-03T02:32:22.162Z,97735
2015-02-03T02:32:40.653Z,97738
2015-02-03T02:32:59.139Z,97741
2015-02-03T02:33:17.641Z,97727
2015-02-03T02:33:36.118Z,97744
2015-02-03T02:33:54.633Z,97744
2015-02-03T02:34:13.110Z,97738
2015-02-03T02:34:31.652Z,97746
2015-02-03T02:34:50.138Z,97738
2015-02-03T02:35:08.617Z,97738
2015-02-03T02:35:27.096Z,97741
2015-02-03T02:35:45.579Z,97738
2015-02-03T02:36:04.063Z,97738
2015-02-03T02:36:22.543Z,97733
2015-02-03T02:36:41.030Z,97727
2015-02-03T02:36:59.532Z,97738
2015-02-03T02:37:18.024Z,97733
2015-02-03T02:37:36.507Z,97738
2015-02-03T02:37:55.016Z,97735
2015-02-03T02:38:13.518Z,97741
2015-02-03T02:38:32.024Z,97730
2015-02-03T02:38:50.542Z,97727
2015-02-03T02:39:09.046Z,97741
2015-02-03T02:39:27.537Z,97738
2015-02-03T02:39:46.017Z,97733
2015-02-03T02:40:04.565Z,97735
2015-02-03T02:40:23.047Z,97738
2015-02-03T02:40:41.587Z,97741
2015-02-03T02:41:00.065Z,97738
2015-02-03T02:41:18.569Z,97727
2015-02-03T02:41:37.058Z,97744
2015-02-03T02:41:55.547Z,97733
2015-02-03T02:42:14.029Z,97738
2015-02-03T02:42:32.562Z,97744
2015-02-03T02:42:51.037Z,97747
2015-02-03T02:43:09.520Z,97744
2015-02-03T02:43:28.012Z,97747
2015-02-03T02:43:46.514Z,97738
2015-02-03T02:44:04.993Z,97744
2015-02-03T02:44:23.481Z,97741
2015-02-03T02:44:41.968Z,97738
2015-02-03T02:45:00.458Z,97741
2015-02-03T02:45:18.948Z,97733
2015-02-03T02:45:37.454Z,97747
2015-02-03T02:45:55.938Z,97741
2015-02-03T02:46:14.452Z,97741
2015-02-03T02:46:32.946Z,97738
2015-02-03T02:46:51.441Z,97749
2015-02-03T02:47:09.946Z,97733
2015-02-03T02:47:28.459Z,97738
2015-02-03T02:47:46.944Z,97744
2015-02-03T02:48:05.427Z,97735
2015-02-03T02:48:23.912Z,97738
2015-02-03T02:48:42.390Z,97744
2015-02-03T02:49:00.879Z,97738
2015-02-03T02:49:19.407Z,97738
2015-02-03T02:49:37.917Z,97741
2015-02-03T02:49:56.429Z,97738
2015-02-03T02:50:14.923Z,97733
2015-02-03T02:50:33.453Z,97747
2015-02-03T02:50:51.936Z,97744
2015-02-03T02:51:10.426Z,97744
2015-02-03T02:51:28.908Z,97741
2015-02-03T02:51:47.392Z,97741
2015-02-03T02:52:05.885Z,97736
2015-02-03T02:52:24.369Z,97741
2015-02-03T02:52:42.879Z,97738
2015-02-03T02:53:01.424Z,97733
2015-02-03T02:53:19.920Z,97741
2015-02-03T02:53:38.413Z,97744
2015-02-03T02:53:56.895Z,97741
2015-02-03T02:54:15.408Z,97750
2015-02-03T02:54:33.902Z,97724
2015-02-03T02:54:52.401Z,97727
2015-02-03T02:55:10.884Z,97730
2015-02-03T02:55:29.393Z,97736
2015-02-03T02:55:47.878Z,97736
2015-02-03T02:56:06.398Z,97744
2015-02-03T02:56:24.879Z,97735
2015-02-03T02:56:43.364Z,97738
2015-02-03T02:57:01.856Z,97738
2015-02-03T02:57:20.346Z,97727
2015-02-03T02:57:38.847Z,97732
2015-02-03T02:57:57.364Z,97733
2015-02-03T02:58:15.847Z,97733
2015-02-03T02:58:34.352Z,97724
2015-02-03T02:58:52.834Z,97730
2015-02-03T02:59:11.319Z,97724
2015-02-03T02:59:29.796Z,97733
2015-02-03T02:59:48.274Z,97735
2015-02-03T03:00:06.760Z,97733
2015-02-03T03:00:25.270Z,97738
2015-02-03T03:00:43.775Z,97733
2015-02-03T03:01:02.323Z,97727
2015-02-03T03:01:20.809Z,97733
2015-02-03T03:01:39.314Z,97735
2015-02-03T03:01:57.793Z,97735
2015-02-03T03:02:16.311Z,97730
2015-02-03T03:02:34.781Z,97721
2015-02-03T03:02:53.310Z,97724
2015-02-03T03:03:11.794Z,97741
2015-02-03T03:03:30.275Z,97727
2015-02-03T03:03:48.758Z,97733
2015-02-03T03:04:07.283Z,97732
2015-02-03T03:04:25.766Z,97732
2015-02-03T03:04:44.280Z,97732
2015-02-03T03:05:02.757Z,97735
2015-02-03T03:05:21.244Z,97721
2015-02-03T03:05:39.729Z,97716
2015-02-03T03:05:58.256Z,97730
2015-02-03T03:06:16.739Z,97721
2015-02-03T03:06:35.218Z,97721
2015-02-03T03:06:53.697Z,97732
2015-02-03T03:07:12.185Z,97730
2015-02-03T03:07:30.667Z,97733
2015-02-03T03:07:49.159Z,97727
2015-02-03T03:08:07.649Z,97733
2015-02-03T03:08:26.177Z,97733
2015-02-03T03:08:44.684Z,97738
2015-02-03T03:09:03.166Z,97735
2015-02-03T03:09:21.658Z,97741
2015-02-03T03:09:40.159Z,97730
2015-02-03T03:09:58.662Z,97727
2015-02-03T03:10:17.143Z,97735
2015-02-03T03:10:35.658Z,97732
2015-02-03T03:10:54.170Z,97730
2015-02-03T03:11:12.662Z,97741
2015-02-03T03:11:31.167Z,97735
2015-02-03T03:11:49.655Z,97735
2015-02-03T03:12:08.212Z,97727
2015-02-03T03:12:26.672Z,97730
2015-02-03T03:12:45.169Z,97733
2015-02-03T03:13:03.649Z,97735
2015-02-03T03:13:22.169Z,97730
2015-02-03T03:13:40.648Z,97721
2015-02-03T03:13:59.160Z,97727
2015-02-03T03:14:17.644Z,97730
2015-02-03T03:14:36.126Z,97735
2015-02-03T03:14:54.612Z,97730
2015-02-03T03:15:13.093Z,97733
2015-02-03T03:15:31.577Z,97733
2015-02-03T03:15:50.058Z,97724
2015-02-03T03:16:08.546Z,97727
2015-02-03T03:16:27.029Z,97724
2015-02-03T03:16:45.513Z,97721
2015-02-03T03:17:04.012Z,97721
2015-02-03T03:17:22.491Z,97724
2015-02-03T03:17:40.971Z,97724
2015-02-03T03:17:59.466Z,97721
2015-02-03T03:18:17.985Z,97724
2015-02-03T03:18:36.488Z,97727
2015-02-03T03:18:54.972Z,97727
2015-02-03T03:19:13.454Z,97721
2015-02-03T03:19:31.938Z,97727
2015-02-03T03:19:50.476Z,97735
2015-02-03T03:20:08.957Z,97733
2015-02-03T03:20:27.446Z,97730
2015-02-03T03:20:45.924Z,97733
2015-02-03T03:21:04.411Z,97724
2015-02-03T03:21:22.918Z,97721
2015-02-03T03:21:41.421Z,97727
2015-02-03T03:21:59.899Z,97733
2015-02-03T03:22:18.383Z,97727
2015-02-03T03:22:36.863Z,97730
2015-02-03T03:22:55.349Z,97719
2015-02-03T03:23:13.832Z,97730
2015-02-03T03:23:32.354Z,97727
2015-02-03T03:23:50.830Z,97733
2015-02-03T03:24:09.327Z,97727
2015-02-03T03:24:27.820Z,97719
2015-02-03T03:24:46.330Z,97727
2015-02-03T03:25:04.817Z,97730
2015-02-03T03:25:23.325Z,97724
2015-02-03T03:25:41.819Z,97730
2015-02-03T03:26:00.326Z,97722
2015-02-03T03:26:18.823Z,97730
2015-02-03T03:26:37.301Z,97716
2015-02-03T03:26:55.800Z,97725
2015-02-03T03:27:14.297Z,97719
2015-02-03T03:27:32.782Z,97719
2015-02-03T03:27:51.284Z,97733
2015-02-03T03:28:09.765Z,97733
2015-02-03T03:28:28.244Z,97721
2015-02-03T03:28:46.743Z,97727
2015-02-03T03:29:05.211Z,97730
2015-02-03T03:29:23.688Z,97727
2015-02-03T03:29:42.171Z,97727
2015-02-03T03:30:00.658Z,97733
2015-02-03T03:30:19.140Z,97733
2015-02-03T03:30:37.628Z,97727
2015-02-03T03:30:56.105Z,97721
2015-02-03T03:31:14.587Z,97721
2015-02-03T03:31:33.066Z,97730
2015-02-03T03:31:51.552Z,97721
2015-02-03T03:32:10.069Z,97738
2015-02-03T03:32:28.552Z,97727
2015-02-03T03:32:47.049Z,97735
2015-02-03T03:33:05.535Z,97732
2015-02-03T03:33:24.025Z,97732
2015-02-03T03:33:42.508Z,97727
2015-02-03T03:34:00.992Z,97738
2015-02-03T03:34:19.484Z,97727
2015-02-03T03:34:37.964Z,97727
2015-02-03T03:34:56.450Z,97727
2015-02-03T03:35:14.926Z,97727
2015-02-03T03:35:33.416Z,97727
2015-02-03T03:35:51.891Z,97727
2015-02-03T03:36:10.379Z,97730
2015-02-03T03:36:28.891Z,97738
2015-02-03T03:36:47.376Z,97730
2015-02-03T03:37:05.883Z,97727
2015-02-03T03:37:24.360Z,97721
2015-02-03T03:37:42.867Z,97727
2015-02-03T03:38:01.356Z,97727
2015-02-03T03:38:19.864Z,97735
2015-02-03T03:38:38.352Z,97724
2015-02-03T03:38:56.840Z,97727
2015-02-03T03:39:15.322Z,97732
2015-02-03T03:39:33.826Z,97716
2015-02-03T03:39:52.310Z,97727
2015-02-03T03:40:10.799Z,97727
2015-02-03T03:40:29.295Z,97730
2015-02-03T03:40:47.812Z,97733
2015-02-03T03:41:06.295Z,97735
2015-02-03T03:41:24.781Z,97738
2015-02-03T03:41:43.270Z,97724
2015-02-03T03:42:01.761Z,97738
2015-02-03T03:42:20.266Z,97727
2015-02-03T03:42:38.787Z,97724
2015-02-03T03:42:57.263Z,97721
2015-02-03T03:43:15.752Z,97733
2015-02-03T03:43:34.257Z,97735
2015-02-03T03:43:52.741Z,97716
2015-02-03T03:44:11.229Z,97730
2015-02-03T03:44:29.724Z,97727
2015-02-03T03:44:48.221Z,97727
2015-02-03T03:45:06.725Z,97718
2015-02-03T03:45:25.224Z,97721
2015-02-03T03:45:43.707Z,97732
2015-02-03T03:46:02.189Z,97724
2015-02-03T03:46:20.672Z,97724
2015-02-03T03:46:39.163Z,97730
2015-02-03T03:46:57.646Z,97721
2015-02-03T03:47:16.124Z,97721
2015-02-03T03:47:34.621Z,97721
2015-02-03T03:47:53.105Z,97735
2015-02-03T03:48:11.617Z,97741
2015-02-03T03:48:30.099Z,97721
2015-02-03T03:48:48.587Z,97733
2015-02-03T03:49:07.086Z,97724
2015-02-03T03:49:25.571Z,97733
2015-02-03T03:49:44.088Z,97733
2015-02-03T03:50:02.591Z,97733
2015-02-03T03:50:21.070Z,97724
2015-02-03T03:50:39.557Z,97730
2015-02-03T03:50:58.093Z,97721
2015-02-03T03:51:16.579Z,97730
2015-02-03T03:51:35.061Z,97733
2015-02-03T03:51:53.543Z,97727
2015-02-03T03:52:12.033Z,97730
2015-02-03T03:52:30.533Z,97730
2015-02-03T03:52:49.030Z,97730
2015-02-03T03:53:07.556Z,97724
2015-02-03T03:53:26.046Z,97733
2015-02-03T03:53:44.552Z,97716
2015-02-03T03:54:03.039Z,97733
2015-02-03T03:54:21.518Z,97733
2015-02-03T03:54:40.012Z,97730
2015-02-03T03:54:58.537Z,97727
2015-02-03T03:55:17.044Z,97724
2015-02-03T03:55:35.564Z,97724
2015-02-03T03:55:54.076Z,97730
2015-02-03T03:56:12.583Z,97735
2015-02-03T03:56:31.061Z,97727
2015-02-03T03:56:49.580Z,97730
2015-02-03T03:57:08.084Z,97727
2015-02-03T03:57:26.604Z,97738
2015-02-03T03:57:45.074Z,97733
2015-02-03T03:58:03.594Z,97738